sensor_id;sensor_type;location;lat;lon;timestamp;temperature;humidity
22185;DHT22;11258;52.516;13.318;2023-01-29T00:01:39;1.00;99.90
22185;DHT22;11258;52.516;13.318;2023-01-29T00:04:04;1.10;99.90
22185;DHT22;11258;52.516;13.318;2023-01-29T00:06:30;1.10;99.90
22185;DHT22;11258;52.516;13.318;2023-01-29T00:08:56;1.10;99.90
22185;DHT22;11258;52.516;13.318;2023-01-29T00:11:22;1.00;99.90
22185;DHT22;11258;52.516;13.318;2023-01-29T00:13:50;1.00;99.90
22185;DHT22;11258;52.516;13.318;2023-01-29T00:16:15;1.00;99.90
22185;DHT22;11258;52.516;13.318;2023-01-29T00:18:41;1.00;99.90
22185;DHT22;11258;52.516;13.318;2023-01-29T00:21:18;1.00;99.90
22185;DHT22;11258;52.516;13.318;2023-01-29T00:23:45;1.00;99.90
22185;DHT22;11258;52.516;13.318;2023-01-29T00:26:11;1.10;99.90
22185;DHT22;11258;52.516;13.318;2023-01-29T00:28:36;1.10;99.90
22185;DHT22;11258;52.516;13.318;2023-01-29T00:31:12;1.10;99.90
22185;DHT22;11258;52.516;13.318;2023-01-29T00:33:38;1.10;99.90
22185;DHT22;11258;52.516;13.318;2023-01-29T00:36:08;1.10;99.90
22185;DHT22;11258;52.516;13.318;2023-01-29T00:38:35;1.10;99.90
22185;DHT22;11258;52.516;13.318;2023-01-29T00:41:05;1.20;99.90
22185;DHT22;11258;52.516;13.318;2023-01-29T00:43:49;1.20;99.90
22185;DHT22;11258;52.516;13.318;2023-01-29T00:46:34;1.20;99.90
22185;DHT22;11258;52.516;13.318;2023-01-29T00:48:59;1.20;99.90
22185;DHT22;11258;52.516;13.318;2023-01-29T00:51:25;1.20;99.90
22185;DHT22;11258;52.516;13.318;2023-01-29T00:53:51;1.20;99.90
22185;DHT22;11258;52.516;13.318;2023-01-29T00:56:18;1.30;99.90
22185;DHT22;11258;52.516;13.318;2023-01-29T00:58:44;1.30;99.90
22185;DHT22;11258;52.516;13.318;2023-01-29T01:01:09;1.20;99.90
22185;DHT22;11258;52.516;13.318;2023-01-29T01:03:35;1.20;99.90
22185;DHT22;11258;52.516;13.318;2023-01-29T01:06:08;1.20;99.90
22185;DHT22;11258;52.516;13.318;2023-01-29T01:08:34;1.20;99.90
22185;DHT22;11258;52.516;13.318;2023-01-29T01:11:18;1.20;99.90
22185;DHT22;11258;52.516;13.318;2023-01-29T01:13:44;1.30;99.90
22185;DHT22;11258;52.516;13.318;2023-01-29T01:16:16;1.20;99.90
22185;DHT22;11258;52.516;13.318;2023-01-29T01:18:43;1.20;99.90
22185;DHT22;11258;52.516;13.318;2023-01-29T01:21:08;1.20;99.90
22185;DHT22;11258;52.516;13.318;2023-01-29T01:23:34;1.20;99.90
22185;DHT22;11258;52.516;13.318;2023-01-29T01:26:00;1.20;99.90
22185;DHT22;11258;52.516;13.318;2023-01-29T01:28:26;1.20;99.90
22185;DHT22;11258;52.516;13.318;2023-01-29T01:30:52;1.20;99.90
22185;DHT22;11258;52.516;13.318;2023-01-29T01:33:18;1.10;99.90
22185;DHT22;11258;52.516;13.318;2023-01-29T01:35:44;1.20;99.90
22185;DHT22;11258;52.516;13.318;2023-01-29T01:38:10;1.20;99.90
22185;DHT22;11258;52.516;13.318;2023-01-29T01:40:36;1.10;99.90
22185;DHT22;11258;52.516;13.318;2023-01-29T01:43:01;1.10;99.90
22185;DHT22;11258;52.516;13.318;2023-01-29T01:45:31;1.10;99.90
22185;DHT22;11258;52.516;13.318;2023-01-29T01:48:09;1.10;99.90
22185;DHT22;11258;52.516;13.318;2023-01-29T01:53:10;1.10;99.90
22185;DHT22;11258;52.516;13.318;2023-01-29T01:55:43;1.20;99.90
22185;DHT22;11258;52.516;13.318;2023-01-29T01:58:17;1.20;99.90
22185;DHT22;11258;52.516;13.318;2023-01-29T02:00:45;1.10;99.90
22185;DHT22;11258;52.516;13.318;2023-01-29T02:03:11;1.20;99.90
22185;DHT22;11258;52.516;13.318;2023-01-29T02:05:56;1.20;99.90
22185;DHT22;11258;52.516;13.318;2023-01-29T02:08:52;1.20;99.90
22185;DHT22;11258;52.516;13.318;2023-01-29T02:11:37;1.20;99.90
22185;DHT22;11258;52.516;13.318;2023-01-29T02:14:03;1.20;99.90
22185;DHT22;11258;52.516;13.318;2023-01-29T02:16:29;1.20;99.90
22185;DHT22;11258;52.516;13.318;2023-01-29T02:18:55;1.30;99.90
22185;DHT22;11258;52.516;13.318;2023-01-29T02:21:56;1.20;99.90
22185;DHT22;11258;52.516;13.318;2023-01-29T02:27:20;1.20;99.90
22185;DHT22;11258;52.516;13.318;2023-01-29T02:32:38;1.20;99.90
22185;DHT22;11258;52.516;13.318;2023-01-29T02:35:16;1.20;99.90
22185;DHT22;11258;52.516;13.318;2023-01-29T02:40:45;1.30;99.90
22185;DHT22;11258;52.516;13.318;2023-01-29T02:43:18;1.30;99.90
22185;DHT22;11258;52.516;13.318;2023-01-29T02:45:59;1.40;99.90
22185;DHT22;11258;52.516;13.318;2023-01-29T02:48:33;1.40;99.90
22185;DHT22;11258;52.516;13.318;2023-01-29T02:51:04;1.40;99.90
22185;DHT22;11258;52.516;13.318;2023-01-29T02:56:06;1.40;99.90
22185;DHT22;11258;52.516;13.318;2023-01-29T02:58:38;1.40;99.90
22185;DHT22;11258;52.516;13.318;2023-01-29T03:01:16;1.40;99.90
22185;DHT22;11258;52.516;13.318;2023-01-29T03:03:48;1.40;99.90
22185;DHT22;11258;52.516;13.318;2023-01-29T03:06:36;1.40;99.90
22185;DHT22;11258;52.516;13.318;2023-01-29T03:09:44;1.40;99.90
22185;DHT22;11258;52.516;13.318;2023-01-29T03:12:19;1.40;99.90
22185;DHT22;11258;52.516;13.318;2023-01-29T03:14:59;1.40;99.90
22185;DHT22;11258;52.516;13.318;2023-01-29T03:17:50;1.40;99.90
22185;DHT22;11258;52.516;13.318;2023-01-29T03:20:20;1.40;99.90
22185;DHT22;11258;52.516;13.318;2023-01-29T03:22:54;1.40;99.90
22185;DHT22;11258;52.516;13.318;2023-01-29T03:25:24;1.40;99.90
22185;DHT22;11258;52.516;13.318;2023-01-29T03:28:12;1.50;99.90
22185;DHT22;11258;52.516;13.318;2023-01-29T03:31:07;1.50;99.90
22185;DHT22;11258;52.516;13.318;2023-01-29T03:34:08;1.50;99.90
22185;DHT22;11258;52.516;13.318;2023-01-29T03:36:52;1.40;99.90
22185;DHT22;11258;52.516;13.318;2023-01-29T03:39:20;1.40;99.90
22185;DHT22;11258;52.516;13.318;2023-01-29T03:41:55;1.40;99.90
22185;DHT22;11258;52.516;13.318;2023-01-29T03:45:11;1.50;99.90
22185;DHT22;11258;52.516;13.318;2023-01-29T03:55:02;1.40;99.90
22185;DHT22;11258;52.516;13.318;2023-01-29T03:57:41;1.50;99.90
22185;DHT22;11258;52.516;13.318;2023-01-29T04:00:19;1.50;99.90
22185;DHT22;11258;52.516;13.318;2023-01-29T04:05:42;1.50;99.90
22185;DHT22;11258;52.516;13.318;2023-01-29T04:08:13;1.50;99.90
22185;DHT22;11258;52.516;13.318;2023-01-29T04:10:42;1.40;99.90
22185;DHT22;11258;52.516;13.318;2023-01-29T04:13:11;1.40;99.90
22185;DHT22;11258;52.516;13.318;2023-01-29T04:15:48;1.50;99.90
22185;DHT22;11258;52.516;13.318;2023-01-29T04:18:15;1.50;99.90
22185;DHT22;11258;52.516;13.318;2023-01-29T04:20:41;1.40;99.90
22185;DHT22;11258;52.516;13.318;2023-01-29T04:23:22;1.40;99.90
22185;DHT22;11258;52.516;13.318;2023-01-29T04:31:30;1.40;99.90
22185;DHT22;11258;52.516;13.318;2023-01-29T04:39:38;1.40;99.90
22185;DHT22;11258;52.516;13.318;2023-01-29T04:44:38;1.30;99.90
22185;DHT22;11258;52.516;13.318;2023-01-29T04:52:52;1.40;99.90
22185;DHT22;11258;52.516;13.318;2023-01-29T04:55:34;1.40;99.90
22185;DHT22;11258;52.516;13.318;2023-01-29T05:00:45;1.40;99.90
22185;DHT22;11258;52.516;13.318;2023-01-29T05:03:15;1.30;99.90
22185;DHT22;11258;52.516;13.318;2023-01-29T05:05:43;1.30;99.90
22185;DHT22;11258;52.516;13.318;2023-01-29T05:08:13;1.30;99.90
22185;DHT22;11258;52.516;13.318;2023-01-29T05:10:40;1.40;99.90
22185;DHT22;11258;52.516;13.318;2023-01-29T05:13:09;1.40;99.90
22185;DHT22;11258;52.516;13.318;2023-01-29T05:15:43;1.30;99.90
22185;DHT22;11258;52.516;13.318;2023-01-29T05:18:09;1.40;99.90
22185;DHT22;11258;52.516;13.318;2023-01-29T05:20:37;1.40;99.90
22185;DHT22;11258;52.516;13.318;2023-01-29T05:23:07;1.40;99.90
22185;DHT22;11258;52.516;13.318;2023-01-29T05:25:34;1.40;99.90
22185;DHT22;11258;52.516;13.318;2023-01-29T05:27:59;1.30;99.90
22185;DHT22;11258;52.516;13.318;2023-01-29T05:30:35;1.30;99.90
22185;DHT22;11258;52.516;13.318;2023-01-29T05:33:02;1.30;99.90
22185;DHT22;11258;52.516;13.318;2023-01-29T05:35:29;1.30;99.90
22185;DHT22;11258;52.516;13.318;2023-01-29T05:37:55;1.40;99.90
22185;DHT22;11258;52.516;13.318;2023-01-29T05:40:22;1.40;99.90
22185;DHT22;11258;52.516;13.318;2023-01-29T05:42:47;1.40;99.90
22185;DHT22;11258;52.516;13.318;2023-01-29T05:45:13;1.40;99.90
22185;DHT22;11258;52.516;13.318;2023-01-29T05:47:39;1.40;99.90
22185;DHT22;11258;52.516;13.318;2023-01-29T05:50:05;1.40;99.90
22185;DHT22;11258;52.516;13.318;2023-01-29T05:52:30;1.40;99.90
22185;DHT22;11258;52.516;13.318;2023-01-29T05:54:56;1.40;99.90
22185;DHT22;11258;52.516;13.318;2023-01-29T05:57:22;1.40;99.90
22185;DHT22;11258;52.516;13.318;2023-01-29T05:59:47;1.40;99.90
22185;DHT22;11258;52.516;13.318;2023-01-29T06:02:13;1.40;99.90
22185;DHT22;11258;52.516;13.318;2023-01-29T06:04:38;1.40;99.90
22185;DHT22;11258;52.516;13.318;2023-01-29T06:07:04;1.40;99.90
22185;DHT22;11258;52.516;13.318;2023-01-29T06:09:30;1.40;99.90
22185;DHT22;11258;52.516;13.318;2023-01-29T06:11:55;1.50;99.90
22185;DHT22;11258;52.516;13.318;2023-01-29T06:14:21;1.50;99.90
22185;DHT22;11258;52.516;13.318;2023-01-29T06:16:47;1.50;99.90
22185;DHT22;11258;52.516;13.318;2023-01-29T06:19:12;1.50;99.90
22185;DHT22;11258;52.516;13.318;2023-01-29T06:21:38;1.50;99.90
22185;DHT22;11258;52.516;13.318;2023-01-29T06:24:04;1.50;99.90
22185;DHT22;11258;52.516;13.318;2023-01-29T06:26:29;1.50;99.90
22185;DHT22;11258;52.516;13.318;2023-01-29T06:28:55;1.50;99.90
22185;DHT22;11258;52.516;13.318;2023-01-29T06:31:20;1.50;99.90
22185;DHT22;11258;52.516;13.318;2023-01-29T06:33:46;1.50;99.90
22185;DHT22;11258;52.516;13.318;2023-01-29T06:36:12;1.50;99.90
22185;DHT22;11258;52.516;13.318;2023-01-29T06:38:37;1.50;99.90
22185;DHT22;11258;52.516;13.318;2023-01-29T06:41:15;1.50;99.90
22185;DHT22;11258;52.516;13.318;2023-01-29T06:43:45;1.40;99.90
22185;DHT22;11258;52.516;13.318;2023-01-29T06:46:11;1.40;99.90
22185;DHT22;11258;52.516;13.318;2023-01-29T06:48:36;1.50;99.90
22185;DHT22;11258;52.516;13.318;2023-01-29T06:51:07;1.50;99.90
22185;DHT22;11258;52.516;13.318;2023-01-29T06:53:33;1.60;99.90
22185;DHT22;11258;52.516;13.318;2023-01-29T06:55:59;1.50;99.90
22185;DHT22;11258;52.516;13.318;2023-01-29T06:58:25;1.50;99.90
22185;DHT22;11258;52.516;13.318;2023-01-29T07:00:51;1.60;99.90
22185;DHT22;11258;52.516;13.318;2023-01-29T07:03:17;1.60;99.90
22185;DHT22;11258;52.516;13.318;2023-01-29T07:05:48;1.50;99.90
22185;DHT22;11258;52.516;13.318;2023-01-29T07:08:14;1.60;99.90
22185;DHT22;11258;52.516;13.318;2023-01-29T07:10:40;1.60;99.90
22185;DHT22;11258;52.516;13.318;2023-01-29T07:13:05;1.60;99.90
22185;DHT22;11258;52.516;13.318;2023-01-29T07:15:31;1.70;99.90
22185;DHT22;11258;52.516;13.318;2023-01-29T07:18:01;1.60;99.90
22185;DHT22;11258;52.516;13.318;2023-01-29T07:20:29;1.60;99.90
22185;DHT22;11258;52.516;13.318;2023-01-29T07:22:57;1.60;99.90
22185;DHT22;11258;52.516;13.318;2023-01-29T07:25:24;1.60;99.90
22185;DHT22;11258;52.516;13.318;2023-01-29T07:27:50;1.60;99.90
22185;DHT22;11258;52.516;13.318;2023-01-29T07:30:16;1.70;99.90
22185;DHT22;11258;52.516;13.318;2023-01-29T07:32:42;1.70;99.90
22185;DHT22;11258;52.516;13.318;2023-01-29T07:35:08;1.70;99.90
22185;DHT22;11258;52.516;13.318;2023-01-29T07:37:34;1.70;99.90
22185;DHT22;11258;52.516;13.318;2023-01-29T07:40:00;1.70;99.90
22185;DHT22;11258;52.516;13.318;2023-01-29T07:42:25;1.80;99.90
22185;DHT22;11258;52.516;13.318;2023-01-29T07:44:51;1.80;99.90
22185;DHT22;11258;52.516;13.318;2023-01-29T07:47:16;1.80;99.90
22185;DHT22;11258;52.516;13.318;2023-01-29T07:49:42;1.80;99.90
22185;DHT22;11258;52.516;13.318;2023-01-29T07:52:08;1.70;99.90
22185;DHT22;11258;52.516;13.318;2023-01-29T07:54:33;1.70;99.90
22185;DHT22;11258;52.516;13.318;2023-01-29T07:56:59;1.80;99.90
22185;DHT22;11258;52.516;13.318;2023-01-29T07:59:24;1.80;99.90
22185;DHT22;11258;52.516;13.318;2023-01-29T08:01:50;1.80;99.90
22185;DHT22;11258;52.516;13.318;2023-01-29T08:04:16;1.80;99.90
22185;DHT22;11258;52.516;13.318;2023-01-29T08:06:41;1.80;99.90
22185;DHT22;11258;52.516;13.318;2023-01-29T08:09:07;1.80;99.90
22185;DHT22;11258;52.516;13.318;2023-01-29T08:11:33;1.70;99.90
22185;DHT22;11258;52.516;13.318;2023-01-29T08:13:58;1.70;99.90
22185;DHT22;11258;52.516;13.318;2023-01-29T08:16:24;1.70;99.90
22185;DHT22;11258;52.516;13.318;2023-01-29T08:18:50;1.80;99.90
22185;DHT22;11258;52.516;13.318;2023-01-29T08:21:15;1.80;99.90
22185;DHT22;11258;52.516;13.318;2023-01-29T08:23:41;1.80;99.90
22185;DHT22;11258;52.516;13.318;2023-01-29T08:26:07;1.80;99.90
22185;DHT22;11258;52.516;13.318;2023-01-29T08:28:33;1.80;99.90
22185;DHT22;11258;52.516;13.318;2023-01-29T08:30:59;1.80;99.90
22185;DHT22;11258;52.516;13.318;2023-01-29T08:33:26;1.90;99.90
22185;DHT22;11258;52.516;13.318;2023-01-29T08:35:53;1.90;99.90
22185;DHT22;11258;52.516;13.318;2023-01-29T08:38:19;2.00;99.90
22185;DHT22;11258;52.516;13.318;2023-01-29T08:40:45;2.00;99.90
22185;DHT22;11258;52.516;13.318;2023-01-29T08:43:12;2.00;99.90
22185;DHT22;11258;52.516;13.318;2023-01-29T08:45:40;2.00;99.90
22185;DHT22;11258;52.516;13.318;2023-01-29T08:48:07;2.00;99.90
22185;DHT22;11258;52.516;13.318;2023-01-29T08:50:33;2.00;99.90
22185;DHT22;11258;52.516;13.318;2023-01-29T08:53:01;2.10;99.90
22185;DHT22;11258;52.516;13.318;2023-01-29T08:55:28;2.00;99.90
22185;DHT22;11258;52.516;13.318;2023-01-29T08:57:54;2.00;99.90
22185;DHT22;11258;52.516;13.318;2023-01-29T09:00:21;2.10;99.90
22185;DHT22;11258;52.516;13.318;2023-01-29T09:02:47;2.10;99.90
22185;DHT22;11258;52.516;13.318;2023-01-29T09:05:13;2.10;99.90
22185;DHT22;11258;52.516;13.318;2023-01-29T09:07:38;2.20;99.90
22185;DHT22;11258;52.516;13.318;2023-01-29T09:10:04;2.20;99.90
22185;DHT22;11258;52.516;13.318;2023-01-29T09:12:30;2.20;99.90
22185;DHT22;11258;52.516;13.318;2023-01-29T09:14:55;2.20;99.90
22185;DHT22;11258;52.516;13.318;2023-01-29T09:17:21;2.30;99.90
22185;DHT22;11258;52.516;13.318;2023-01-29T09:19:47;2.30;99.90
22185;DHT22;11258;52.516;13.318;2023-01-29T09:22:12;2.30;99.90
22185;DHT22;11258;52.516;13.318;2023-01-29T09:24:38;2.30;99.90
22185;DHT22;11258;52.516;13.318;2023-01-29T09:27:04;2.30;99.90
22185;DHT22;11258;52.516;13.318;2023-01-29T09:29:30;2.40;99.90
22185;DHT22;11258;52.516;13.318;2023-01-29T09:31:56;2.50;99.90
22185;DHT22;11258;52.516;13.318;2023-01-29T09:34:21;2.40;99.90
22185;DHT22;11258;52.516;13.318;2023-01-29T09:36:47;2.50;99.90
22185;DHT22;11258;52.516;13.318;2023-01-29T09:39:12;2.50;99.90
22185;DHT22;11258;52.516;13.318;2023-01-29T09:47:13;2.70;99.90
22185;DHT22;11258;52.516;13.318;2023-01-29T09:49:46;2.80;99.90
22185;DHT22;11258;52.516;13.318;2023-01-29T09:52:17;2.80;99.90
22185;DHT22;11258;52.516;13.318;2023-01-29T09:55:02;2.90;99.90
22185;DHT22;11258;52.516;13.318;2023-01-29T09:57:45;3.00;99.90
22185;DHT22;11258;52.516;13.318;2023-01-29T10:00:19;3.10;99.90
22185;DHT22;11258;52.516;13.318;2023-01-29T10:06:14;3.30;99.90
22185;DHT22;11258;52.516;13.318;2023-01-29T10:08:53;3.40;99.90
22185;DHT22;11258;52.516;13.318;2023-01-29T10:11:50;3.50;99.90
22185;DHT22;11258;52.516;13.318;2023-01-29T10:23:27;3.50;99.90
22185;DHT22;11258;52.516;13.318;2023-01-29T10:25:55;3.80;99.90
22185;DHT22;11258;52.516;13.318;2023-01-29T10:30:53;4.00;99.90
22185;DHT22;11258;52.516;13.318;2023-01-29T10:33:40;4.10;99.90
22185;DHT22;11258;52.516;13.318;2023-01-29T10:36:09;4.30;99.90
22185;DHT22;11258;52.516;13.318;2023-01-29T10:38:42;4.30;99.90
22185;DHT22;11258;52.516;13.318;2023-01-29T10:46:59;4.40;99.90
22185;DHT22;11258;52.516;13.318;2023-01-29T10:55:13;4.30;99.90
22185;DHT22;11258;52.516;13.318;2023-01-29T11:00:21;4.30;99.90
22185;DHT22;11258;52.516;13.318;2023-01-29T11:02:49;4.40;99.90
22185;DHT22;11258;52.516;13.318;2023-01-29T11:05:29;4.50;99.90
22185;DHT22;11258;52.516;13.318;2023-01-29T11:08:12;4.40;99.90
22185;DHT22;11258;52.516;13.318;2023-01-29T11:10:47;4.40;99.90
22185;DHT22;11258;52.516;13.318;2023-01-29T11:13:15;4.50;99.90
22185;DHT22;11258;52.516;13.318;2023-01-29T11:15:42;4.40;99.90
22185;DHT22;11258;52.516;13.318;2023-01-29T11:18:13;4.30;99.90
22185;DHT22;11258;52.516;13.318;2023-01-29T11:20:41;4.30;99.90
22185;DHT22;11258;52.516;13.318;2023-01-29T11:23:28;4.40;99.90
22185;DHT22;11258;52.516;13.318;2023-01-29T11:25:56;4.40;99.90
22185;DHT22;11258;52.516;13.318;2023-01-29T11:31:21;4.70;99.90
22185;DHT22;11258;52.516;13.318;2023-01-29T11:33:50;4.70;99.90
22185;DHT22;11258;52.516;13.318;2023-01-29T11:36:44;4.80;99.90
22185;DHT22;11258;52.516;13.318;2023-01-29T11:39:19;4.70;99.90
22185;DHT22;11258;52.516;13.318;2023-01-29T11:41:57;4.70;99.90
22185;DHT22;11258;52.516;13.318;2023-01-29T11:46:54;4.70;99.90
22185;DHT22;11258;52.516;13.318;2023-01-29T11:49:25;4.50;99.90
22185;DHT22;11258;52.516;13.318;2023-01-29T11:51:55;4.60;99.90
22185;DHT22;11258;52.516;13.318;2023-01-29T11:54:25;4.60;99.90
22185;DHT22;11258;52.516;13.318;2023-01-29T11:56:52;4.70;99.90
22185;DHT22;11258;52.516;13.318;2023-01-29T11:59:44;4.80;99.90
22185;DHT22;11258;52.516;13.318;2023-01-29T12:05:18;4.80;99.90
22185;DHT22;11258;52.516;13.318;2023-01-29T12:07:45;4.80;99.90
22185;DHT22;11258;52.516;13.318;2023-01-29T12:15:37;4.90;99.90
22185;DHT22;11258;52.516;13.318;2023-01-29T12:18:10;5.00;99.90
22185;DHT22;11258;52.516;13.318;2023-01-29T12:20:41;5.00;99.90
22185;DHT22;11258;52.516;13.318;2023-01-29T12:33:51;4.90;99.90
22185;DHT22;11258;52.516;13.318;2023-01-29T12:36:27;4.90;99.90
22185;DHT22;11258;52.516;13.318;2023-01-29T12:38:56;4.90;99.90
22185;DHT22;11258;52.516;13.318;2023-01-29T12:41:53;4.90;99.90
22185;DHT22;11258;52.516;13.318;2023-01-29T12:46:58;4.80;99.90
22185;DHT22;11258;52.516;13.318;2023-01-29T12:49:29;4.80;99.90
22185;DHT22;11258;52.516;13.318;2023-01-29T12:52:15;4.70;99.90
22185;DHT22;11258;52.516;13.318;2023-01-29T12:54:48;4.60;99.90
22185;DHT22;11258;52.516;13.318;2023-01-29T13:00:31;4.40;99.90
22185;DHT22;11258;52.516;13.318;2023-01-29T13:03:02;4.40;99.90
22185;DHT22;11258;52.516;13.318;2023-01-29T13:05:50;4.40;99.90
22185;DHT22;11258;52.516;13.318;2023-01-29T13:10:55;4.30;99.90
22185;DHT22;11258;52.516;13.318;2023-01-29T13:13:47;4.30;99.90
22185;DHT22;11258;52.516;13.318;2023-01-29T13:16:22;4.30;99.90
22185;DHT22;11258;52.516;13.318;2023-01-29T13:19:02;4.20;99.90
22185;DHT22;11258;52.516;13.318;2023-01-29T13:21:38;4.30;99.90
22185;DHT22;11258;52.516;13.318;2023-01-29T13:24:15;4.30;99.90
22185;DHT22;11258;52.516;13.318;2023-01-29T13:26:47;4.30;99.90
22185;DHT22;11258;52.516;13.318;2023-01-29T13:29:22;4.30;99.90
22185;DHT22;11258;52.516;13.318;2023-01-29T13:31:50;4.30;99.90
22185;DHT22;11258;52.516;13.318;2023-01-29T13:34:34;4.30;99.90
22185;DHT22;11258;52.516;13.318;2023-01-29T13:37:11;4.20;99.90
22185;DHT22;11258;52.516;13.318;2023-01-29T13:39:48;4.20;99.90
22185;DHT22;11258;52.516;13.318;2023-01-29T13:42:44;4.20;99.90
22185;DHT22;11258;52.516;13.318;2023-01-29T13:45:23;4.10;99.90
22185;DHT22;11258;52.516;13.318;2023-01-29T13:47:50;4.10;99.90
22185;DHT22;11258;52.516;13.318;2023-01-29T13:50:27;4.10;99.90
22185;DHT22;11258;52.516;13.318;2023-01-29T13:53:00;4.10;99.90
22185;DHT22;11258;52.516;13.318;2023-01-29T13:55:37;4.10;99.90
22185;DHT22;11258;52.516;13.318;2023-01-29T13:58:18;4.10;99.90
22185;DHT22;11258;52.516;13.318;2023-01-29T14:01:02;4.00;99.90
22185;DHT22;11258;52.516;13.318;2023-01-29T14:13:45;3.80;99.90
22185;DHT22;11258;52.516;13.318;2023-01-29T14:18:57;3.70;99.90
22185;DHT22;11258;52.516;13.318;2023-01-29T14:23:53;3.70;99.90
22185;DHT22;11258;52.516;13.318;2023-01-29T14:26:27;3.70;99.90
22185;DHT22;11258;52.516;13.318;2023-01-29T14:34:01;3.70;99.90
22185;DHT22;11258;52.516;13.318;2023-01-29T14:36:28;3.70;99.90
22185;DHT22;11258;52.516;13.318;2023-01-29T14:38:56;3.60;99.90
22185;DHT22;11258;52.516;13.318;2023-01-29T14:41:32;3.60;99.90
22185;DHT22;11258;52.516;13.318;2023-01-29T14:47:01;3.50;99.90
22185;DHT22;11258;52.516;13.318;2023-01-29T14:49:51;3.40;99.90
22185;DHT22;11258;52.516;13.318;2023-01-29T14:52:31;3.40;99.90
22185;DHT22;11258;52.516;13.318;2023-01-29T14:55:03;3.40;99.90
22185;DHT22;11258;52.516;13.318;2023-01-29T14:57:30;3.30;99.90
22185;DHT22;11258;52.516;13.318;2023-01-29T15:00:04;3.40;99.90
22185;DHT22;11258;52.516;13.318;2023-01-29T15:02:37;3.40;99.90
22185;DHT22;11258;52.516;13.318;2023-01-29T15:05:10;3.40;99.90
22185;DHT22;11258;52.516;13.318;2023-01-29T15:07:55;3.40;99.90
22185;DHT22;11258;52.516;13.318;2023-01-29T15:10:26;3.30;99.90
22185;DHT22;11258;52.516;13.318;2023-01-29T15:12:59;3.30;99.90
22185;DHT22;11258;52.516;13.318;2023-01-29T15:18:41;3.30;99.90
22185;DHT22;11258;52.516;13.318;2023-01-29T15:21:13;3.30;99.90
22185;DHT22;11258;52.516;13.318;2023-01-29T15:23:40;3.30;99.90
22185;DHT22;11258;52.516;13.318;2023-01-29T15:26:09;3.30;99.90
22185;DHT22;11258;52.516;13.318;2023-01-29T15:28:37;3.20;99.90
22185;DHT22;11258;52.516;13.318;2023-01-29T15:31:12;3.20;99.90
22185;DHT22;11258;52.516;13.318;2023-01-29T15:33:42;3.20;99.90
22185;DHT22;11258;52.516;13.318;2023-01-29T15:36:22;3.20;99.90
22185;DHT22;11258;52.516;13.318;2023-01-29T15:39:03;3.20;99.90
22185;DHT22;11258;52.516;13.318;2023-01-29T15:41:29;3.20;99.90
22185;DHT22;11258;52.516;13.318;2023-01-29T15:43:59;3.20;99.90
22185;DHT22;11258;52.516;13.318;2023-01-29T15:46:34;3.20;99.90
22185;DHT22;11258;52.516;13.318;2023-01-29T15:49:06;3.10;99.90
22185;DHT22;11258;52.516;13.318;2023-01-29T15:51:33;3.10;99.90
22185;DHT22;11258;52.516;13.318;2023-01-29T15:54:00;3.10;99.90
22185;DHT22;11258;52.516;13.318;2023-01-29T15:56:48;3.10;99.90
22185;DHT22;11258;52.516;13.318;2023-01-29T15:59:36;3.10;99.90
22185;DHT22;11258;52.516;13.318;2023-01-29T16:05:04;3.00;99.90
22185;DHT22;11258;52.516;13.318;2023-01-29T16:07:31;3.00;99.90
22185;DHT22;11258;52.516;13.318;2023-01-29T16:09:58;3.00;99.90
22185;DHT22;11258;52.516;13.318;2023-01-29T16:12:25;3.00;99.90
22185;DHT22;11258;52.516;13.318;2023-01-29T16:14:51;3.00;99.90
22185;DHT22;11258;52.516;13.318;2023-01-29T16:17:32;3.00;99.90
22185;DHT22;11258;52.516;13.318;2023-01-29T16:20:05;3.00;99.90
22185;DHT22;11258;52.516;13.318;2023-01-29T16:22:33;3.00;99.90
22185;DHT22;11258;52.516;13.318;2023-01-29T16:25:05;3.00;99.90
22185;DHT22;11258;52.516;13.318;2023-01-29T16:27:31;3.00;99.90
22185;DHT22;11258;52.516;13.318;2023-01-29T16:29:57;3.00;99.90
22185;DHT22;11258;52.516;13.318;2023-01-29T16:32:23;3.00;99.90
22185;DHT22;11258;52.516;13.318;2023-01-29T16:34:56;3.10;99.90
22185;DHT22;11258;52.516;13.318;2023-01-29T16:37:31;3.10;99.90
22185;DHT22;11258;52.516;13.318;2023-01-29T16:39:57;3.10;99.90
22185;DHT22;11258;52.516;13.318;2023-01-29T16:42:24;3.10;99.90
22185;DHT22;11258;52.516;13.318;2023-01-29T16:47:31;3.10;99.90
22185;DHT22;11258;52.516;13.318;2023-01-29T16:50:00;3.10;99.90
22185;DHT22;11258;52.516;13.318;2023-01-29T16:52:29;3.10;99.90
22185;DHT22;11258;52.516;13.318;2023-01-29T16:55:19;3.10;99.90
22185;DHT22;11258;52.516;13.318;2023-01-29T16:57:52;3.10;99.90
22185;DHT22;11258;52.516;13.318;2023-01-29T17:00:28;3.10;99.90
22185;DHT22;11258;52.516;13.318;2023-01-29T17:03:05;3.10;99.90
22185;DHT22;11258;52.516;13.318;2023-01-29T17:05:34;3.00;99.90
22185;DHT22;11258;52.516;13.318;2023-01-29T17:08:01;3.00;99.90
22185;DHT22;11258;52.516;13.318;2023-01-29T17:10:29;3.00;99.90
22185;DHT22;11258;52.516;13.318;2023-01-29T17:13:07;3.00;99.90
22185;DHT22;11258;52.516;13.318;2023-01-29T17:15:44;3.00;99.90
22185;DHT22;11258;52.516;13.318;2023-01-29T17:18:23;3.00;99.90
22185;DHT22;11258;52.516;13.318;2023-01-29T17:20:49;3.00;99.90
22185;DHT22;11258;52.516;13.318;2023-01-29T17:23:17;3.10;99.90
22185;DHT22;11258;52.516;13.318;2023-01-29T17:25:43;3.10;99.90
22185;DHT22;11258;52.516;13.318;2023-01-29T17:28:12;3.10;99.90
22185;DHT22;11258;52.516;13.318;2023-01-29T17:30:38;3.10;99.90
22185;DHT22;11258;52.516;13.318;2023-01-29T17:33:12;3.10;99.90
22185;DHT22;11258;52.516;13.318;2023-01-29T17:35:39;3.20;99.90
22185;DHT22;11258;52.516;13.318;2023-01-29T17:38:12;3.10;99.90
22185;DHT22;11258;52.516;13.318;2023-01-29T17:40:45;3.10;99.90
22185;DHT22;11258;52.516;13.318;2023-01-29T17:43:11;3.10;99.90
22185;DHT22;11258;52.516;13.318;2023-01-29T17:45:38;3.10;99.90
22185;DHT22;11258;52.516;13.318;2023-01-29T17:48:14;3.10;99.90
22185;DHT22;11258;52.516;13.318;2023-01-29T17:50:44;3.10;99.90
22185;DHT22;11258;52.516;13.318;2023-01-29T17:53:14;3.10;99.90
22185;DHT22;11258;52.516;13.318;2023-01-29T17:55:40;3.10;99.90
22185;DHT22;11258;52.516;13.318;2023-01-29T18:00:43;3.10;99.90
22185;DHT22;11258;52.516;13.318;2023-01-29T18:03:09;3.10;99.90
22185;DHT22;11258;52.516;13.318;2023-01-29T18:05:34;3.10;99.90
22185;DHT22;11258;52.516;13.318;2023-01-29T18:08:00;3.10;99.90
22185;DHT22;11258;52.516;13.318;2023-01-29T18:10:27;3.10;99.90
22185;DHT22;11258;52.516;13.318;2023-01-29T18:12:52;3.10;99.90
22185;DHT22;11258;52.516;13.318;2023-01-29T18:15:18;3.00;99.90
22185;DHT22;11258;52.516;13.318;2023-01-29T18:17:44;3.10;99.90
22185;DHT22;11258;52.516;13.318;2023-01-29T18:20:21;3.10;99.90
22185;DHT22;11258;52.516;13.318;2023-01-29T18:22:47;3.10;99.90